No particular awareness of the weather is required.    There are no Weather-warnings


Meteo18 Weather Cam more information Meteo18 Weather Cam


Thunder radar more information blitzortung!


Rain radar more information rain snow radar


Visit our other weather sites:

Template documentation
and downloads

And another site



Weather Underground History page Text

Daily Summary for September 6, 2017 Units:  English    Metric   Both
« Previous Day
Next Day »
Daily Weekly Monthly Yearly Custom
  High: Low: Average:
Temperature: TemperatureC °F 13.8 °F 17 °F
Dew Point: DewpointC °F 8.7 °F 11.1 °F
Humidity: Humidity % 48 % 69 %
Wind Speed: WindSpeedKMH mph 0.0 mph 6.8 mph
Wind Gust: WindSpeedGustKMH mph - -
Wind:- - West
Pressure: PressurehPa in 1021.9 in -
Precipitation: 0.0 in    
Historical Graphs
 
 
Tabular Data for September 6, 2017
Time Temperature Dew Point Pressure Wind Wind Speed Wind Gust Humidity Rainfall Rate (Hourly)
TemperatureC °F DewpointC °F PressurehPa in Calm     Humidity % HourlyPrecipMM in
00:02 19.5 °F 15.4 °F 1021.9 in WSW 4.8 mph 17.7 mph 77 % 0.0 in
00:07 19.4 °F 15.3 °F 1021.9 in WSW 9.7 mph 17.7 mph 77 % 0.0 in
00:12 19.3 °F 15.4 °F 1021.9 in West 9.7 mph 17.7 mph 78 % 0.0 in
00:17 19.2 °F 15.3 °F 1021.9 in WSW 3.2 mph 16.1 mph 78 % 0.0 in
00:22 19.2 °F 15.3 °F 1021.9 in WSW 9.7 mph 14.5 mph 78 % 0.0 in
00:32 19.0 °F 15.3 °F 1021.9 in SW 3.2 mph 12.9 mph 79 % 0.0 in
00:42 18.9 °F 15.2 °F 1021.9 in West 9.7 mph 12.9 mph 79 % 0.0 in
00:47 18.9 °F 15.2 °F 1021.9 in SW 4.8 mph 19.3 mph 79 % 0.0 in
00:52 18.9 °F 15.2 °F 1022.2 in WSW 9.7 mph 19.3 mph 79 % 0.0 in
00:57 18.8 °F 15.1 °F 1022.2 in SW 3.2 mph 19.3 mph 79 % 0.0 in
01:02 18.7 °F 15.2 °F 1022.2 in WSW 8.0 mph 17.7 mph 80 % 0.0 in
01:07 18.6 °F 15.1 °F 1022.2 in WSW 8.0 mph 17.7 mph 80 % 0.0 in
01:12 18.6 °F 15.1 °F 1022.2 in West 8.0 mph 17.7 mph 80 % 0.0 in
01:17 18.4 °F 15.1 °F 1022.2 in WSW 6.4 mph 14.5 mph 81 % 0.0 in
01:22 18.3 °F 15.0 °F 1022.2 in West 4.8 mph 12.9 mph 81 % 0.0 in
01:27 18.2 °F 14.9 °F 1022.2 in West 3.2 mph 11.3 mph 81 % 0.0 in
01:32 18.1 °F 15.0 °F 1022.2 in WNW 4.8 mph 9.7 mph 82 % 0.0 in
01:37 18.1 °F 15.0 °F 1022.2 in WSW 8.0 mph 9.7 mph 82 % 0.0 in
01:42 18.1 °F 15.0 °F 1022.2 in West 6.4 mph 12.9 mph 82 % 0.0 in
01:47 18.1 °F 15.2 °F 1022.2 in West 6.4 mph 14.5 mph 83 % 0.0 in
01:52 18.0 °F 15.1 °F 1022.2 in WSW 8.0 mph 14.5 mph 83 % 0.0 in
01:57 17.9 °F 15.0 °F 1022.2 in West 4.8 mph 12.9 mph 83 % 0.0 in
02:02 17.9 °F 15.0 °F 1022.2 in West 14.5 mph 14.5 mph 83 % 0.0 in
02:07 17.9 °F 15.0 °F 1022.2 in WNW 9.7 mph 17.7 mph 83 % 0.0 in
02:12 17.8 °F 14.9 °F 1022.6 in WNW 6.4 mph 17.7 mph 83 % 0.0 in
02:17 17.6 °F 14.7 °F 1022.6 in WNW 6.4 mph 17.7 mph 83 % 0.0 in
02:22 17.6 °F 14.7 °F 1022.6 in WNW 9.7 mph 17.7 mph 83 % 0.0 in
02:27 17.4 °F 14.7 °F 1022.6 in West 9.7 mph 19.3 mph 84 % 0.0 in
02:32 17.3 °F 14.6 °F 1022.6 in WNW 8.0 mph 19.3 mph 84 % 0.0 in
02:37 17.2 °F 14.5 °F 1022.6 in WNW 4.8 mph 16.1 mph 84 % 0.0 in
02:42 17.1 °F 14.4 °F 1022.6 in West 3.2 mph 16.1 mph 84 % 0.0 in
02:47 17.0 °F 14.3 °F 1022.6 in West 4.8 mph 14.5 mph 84 % 0.0 in
02:52 16.9 °F 14.2 °F 1022.6 in West 9.7 mph 11.3 mph 84 % 0.0 in
02:57 16.9 °F 14.2 °F 1022.6 in West 4.8 mph 17.7 mph 84 % 0.0 in
03:02 16.9 °F 14.2 °F 1022.6 in WSW 11.3 mph 17.7 mph 84 % 0.0 in
03:07 16.8 °F 14.1 °F 1022.6 in West 4.8 mph 17.7 mph 84 % 0.0 in
03:12 16.7 °F 14.0 °F 1022.6 in West 1.6 mph 17.7 mph 84 % 0.0 in
03:17 16.6 °F 13.9 °F 1022.6 in West 6.4 mph 17.7 mph 84 % 0.0 in
03:22 16.6 °F 14.1 °F 1022.6 in WNW 4.8 mph 11.3 mph 85 % 0.0 in
03:27 16.7 °F 14.2 °F 1022.6 in West 3.2 mph 14.5 mph 85 % 0.0 in
03:32 16.7 °F 14.2 °F 1022.9 in WNW 11.3 mph 16.1 mph 85 % 0.0 in
03:37 16.7 °F 14.2 °F 1022.6 in West 14.5 mph 16.1 mph 85 % 0.0 in
03:42 16.7 °F 14.2 °F 1022.9 in WSW 8.0 mph 16.1 mph 85 % 0.0 in
03:47 16.7 °F 14.2 °F 1022.9 in West 4.8 mph 16.1 mph 85 % 0.0 in
03:52 16.7 °F 14.2 °F 1022.9 in WSW 4.8 mph 16.1 mph 85 % 0.0 in
03:57 16.7 °F 14.2 °F 1022.9 in West 11.3 mph 16.1 mph 85 % 0.0 in
04:02 16.7 °F 14.2 °F 1022.9 in WSW 11.3 mph 12.9 mph 85 % 0.0 in
04:07 16.7 °F 14.2 °F 1022.9 in WSW 3.2 mph 12.9 mph 85 % 0.0 in
04:12 16.6 °F 14.1 °F 1022.9 in NW 6.4 mph 12.9 mph 85 % 0.0 in
04:17 16.6 °F 14.1 °F 1022.9 in West 3.2 mph 16.1 mph 85 % 0.0 in
04:22 16.6 °F 14.1 °F 1022.9 in WSW 4.8 mph 16.1 mph 85 % 0.0 in
04:27 16.6 °F 14.1 °F 1022.9 in WNW 4.8 mph 12.9 mph 85 % 0.0 in
04:32 16.5 °F 14.0 °F 1022.9 in SW 3.2 mph 12.9 mph 85 % 0.0 in
04:37 16.5 °F 14.0 °F 1022.9 in WSW 6.4 mph 14.5 mph 85 % 0.0 in
04:42 16.5 °F 14.0 °F 1022.9 in West 4.8 mph 14.5 mph 85 % 0.0 in
04:47 16.5 °F 14.0 °F 1022.9 in WSW 6.4 mph 14.5 mph 85 % 0.0 in
04:52 16.4 °F 13.9 °F 1022.9 in WNW 8.0 mph 14.5 mph 85 % 0.0 in
04:57 16.4 °F 14.1 °F 1022.9 in WNW 9.7 mph 16.1 mph 86 % 0.0 in
05:02 16.2 °F 14.2 °F 1022.9 in West 8.0 mph 19.3 mph 88 % 0.0 in
05:07 15.8 °F 14.0 °F 1023.2 in NNW 12.9 mph 19.3 mph 89 % 0.0 in
05:17 15.1 °F 13.3 °F 1023.2 in WNW 4.8 mph 24.1 mph 89 % 0.0 in
05:22 14.9 °F 13.3 °F 1023.2 in WNW 11.3 mph 24.1 mph 90 % 0.0 in
05:27 14.8 °F 13.3 °F 1023.2 in NW 3.2 mph 17.7 mph 91 % 0.0 in
05:32 14.7 °F 13.2 °F 1023.2 in WNW 4.8 mph 17.7 mph 91 % 0.0 in
05:37 14.7 °F 13.2 °F 1022.9 in WNW 9.7 mph 16.1 mph 91 % 0.0 in
05:42 14.7 °F 13.2 °F 1022.9 in WSW 4.8 mph 16.1 mph 91 % 0.0 in
05:47 14.7 °F 13.2 °F 1022.9 in WNW 9.7 mph 14.5 mph 91 % 0.0 in
05:52 14.7 °F 13.1 °F 1022.9 in WNW 4.8 mph 16.1 mph 90 % 0.0 in
05:57 14.7 °F 13.1 °F 1023.2 in WNW 12.9 mph 16.1 mph 90 % 0.0 in
06:02 14.7 °F 13.1 °F 1023.2 in NW 6.4 mph 17.7 mph 90 % 0.0 in
06:07 14.7 °F 13.1 °F 1023.2 in WNW 4.8 mph 17.7 mph 90 % 0.0 in
06:12 14.7 °F 12.9 °F 1023.2 in NNW 1.6 mph 17.7 mph 89 % 0.0 in
06:17 14.8 °F 13.0 °F 1023.2 in NW 9.7 mph 16.1 mph 89 % 0.0 in
06:22 14.8 °F 13.0 °F 1023.2 in West 4.8 mph 16.1 mph 89 % 0.0 in
06:27 14.8 °F 12.8 °F 1023.2 in WNW 6.4 mph 12.9 mph 88 % 0.0 in
06:32 14.8 °F 12.8 °F 1023.2 in NNW 4.8 mph 12.9 mph 88 % 0.0 in
06:37 14.8 °F 12.8 °F 1023.2 in WNW 6.4 mph 12.9 mph 88 % 0.0 in
06:42 14.8 °F 12.7 °F 1023.2 in WNW 11.3 mph 12.9 mph 87 % 0.0 in
06:52 14.8 °F 12.7 °F 1023.6 in NNW 4.8 mph 17.7 mph 87 % 0.0 in
06:57 14.7 °F 12.6 °F 1023.6 in NW 3.2 mph 16.1 mph 87 % 0.0 in
07:02 14.7 °F 12.4 °F 1023.6 in NNW 3.2 mph 16.1 mph 86 % 0.0 in
07:07 14.8 °F 12.5 °F 1023.6 in WNW 8.0 mph 16.1 mph 86 % 0.0 in
07:12 14.7 °F 12.4 °F 1023.6 in WNW 8.0 mph 16.1 mph 86 % 0.0 in
07:17 14.7 °F 12.4 °F 1023.6 in NW 8.0 mph 17.7 mph 86 % 0.0 in
07:22 14.7 °F 12.2 °F 1023.6 in WNW 11.3 mph 17.7 mph 85 % 0.0 in
07:32 14.6 °F 11.9 °F 1023.6 in NW 16.1 mph 20.9 mph 84 % 0.0 in
07:37 14.6 °F 11.9 °F 1023.9 in WNW 9.7 mph 20.9 mph 84 % 0.0 in
07:42 14.6 °F 11.9 °F 1023.9 in WNW 11.3 mph 19.3 mph 84 % 0.0 in
07:52 14.4 °F 11.5 °F 1024.3 in WNW 9.7 mph 25.7 mph 83 % 0.0 in
07:57 14.4 °F 11.7 °F 1024.3 in Calm   25.7 mph 84 % 0.0 in
08:02 14.3 °F 11.5 °F 1024.3 in WNW 11.3 mph 16.1 mph 83 % 0.0 in
08:07 14.2 °F 11.4 °F 1024.3 in NW 8.0 mph 19.3 mph 83 % 0.0 in
08:12 14.2 °F 11.4 °F 1024.3 in WNW 6.4 mph 19.3 mph 83 % 0.0 in
08:17 14.1 °F 11.4 °F 1024.3 in WNW 4.8 mph 19.3 mph 84 % 0.0 in
08:22 13.9 °F 11.2 °F 1024.6 in WNW 8.0 mph 16.1 mph 84 % 0.0 in
08:27 13.8 °F 11.1 °F 1024.6 in WNW 4.8 mph 16.1 mph 84 % 0.0 in
08:32 13.8 °F 11.1 °F 1024.6 in WNW 11.3 mph 14.5 mph 84 % 0.0 in
08:37 13.9 °F 11.2 °F 1024.6 in WNW 12.9 mph 14.5 mph 84 % 0.0 in
08:42 14.1 °F 11.3 °F 1024.6 in WSW 8.0 mph 20.9 mph 83 % 0.0 in
08:47 14.2 °F 11.4 °F 1024.9 in West 8.0 mph 20.9 mph 83 % 0.0 in
08:52 14.3 °F 11.5 °F 1024.9 in Calm   20.9 mph 83 % 0.0 in
08:57 14.4 °F 11.4 °F 1024.9 in West 8.0 mph 14.5 mph 82 % 0.0 in
09:02 14.6 °F 11.4 °F 1024.9 in West 4.8 mph 14.5 mph 81 % 0.0 in
09:07 14.8 °F 11.2 °F 1024.9 in NW 4.8 mph 11.3 mph 79 % 0.0 in
09:12 15.0 °F 11.0 °F 1024.9 in WNW 11.3 mph 20.9 mph 77 % 0.0 in
09:17 15.1 °F 10.9 °F 1024.9 in West 11.3 mph 20.9 mph 76 % 0.0 in
09:22 14.8 °F 10.8 °F 1024.9 in WSW 6.4 mph 19.3 mph 77 % 0.0 in
09:27 14.7 °F 10.7 °F 1024.9 in WNW 6.4 mph 16.1 mph 77 % 0.0 in
09:32 14.7 °F 10.9 °F 1024.9 in NNW 4.8 mph 16.1 mph 78 % 0.0 in
09:42 14.6 °F 10.8 °F 1024.9 in West 9.7 mph 12.9 mph 78 % 0.0 in
09:47 14.6 °F 10.8 °F 1025.3 in WNW 4.8 mph 17.7 mph 78 % 0.0 in
09:52 14.6 °F 10.8 °F 1025.3 in West 4.8 mph 17.7 mph 78 % 0.0 in
09:57 14.6 °F 11.0 °F 1025.3 in WNW 6.4 mph 16.1 mph 79 % 0.0 in
10:02 14.6 °F 11.0 °F 1025.3 in West 11.3 mph 16.1 mph 79 % 0.0 in
10:07 14.5 °F 10.9 °F 1025.3 in West 8.0 mph 20.9 mph 79 % 0.0 in
10:12 14.6 °F 11.2 °F 1025.3 in WNW 8.0 mph 20.9 mph 80 % 0.0 in
10:17 14.6 °F 11.0 °F 1025.3 in West 9.7 mph 20.9 mph 79 % 0.0 in
10:22 14.7 °F 11.1 °F 1025.3 in West 1.6 mph 14.5 mph 79 % 0.0 in
10:27 14.8 °F 10.6 °F 1025.3 in WNW 12.9 mph 14.5 mph 76 % 0.0 in
10:32 14.7 °F 10.3 °F 1025.3 in NW 9.7 mph 22.5 mph 75 % 0.0 in
10:37 14.8 °F 10.2 °F 1025.3 in WSW 11.3 mph 22.5 mph 74 % 0.0 in
10:42 14.8 °F 10.0 °F 1025.3 in WSW 11.3 mph 22.5 mph 73 % 0.0 in
10:47 14.8 °F 10.0 °F 1025.3 in WNW 9.7 mph 19.3 mph 73 % 0.0 in
10:52 14.8 °F 9.2 °F 1025.3 in WNW 20.9 mph 22.5 mph 69 % 0.0 in
10:57 14.9 °F 9.0 °F 1025.3 in West 14.5 mph 22.5 mph 68 % 0.0 in
11:02 14.9 °F 9.0 °F 1025.3 in WNW 9.7 mph 22.5 mph 68 % 0.0 in
11:07 15.1 °F 9.2 °F 1025.3 in WNW 11.3 mph 22.5 mph 68 % 0.0 in
11:12 15.2 °F 9.1 °F 1025.3 in West 9.7 mph 22.5 mph 67 % 0.0 in
11:17 15.3 °F 9.0 °F 1025.3 in WNW 12.9 mph 22.5 mph 66 % 0.0 in
11:22 15.6 °F 9.5 °F 1025.3 in NW 3.2 mph 20.9 mph 67 % 0.0 in
11:27 15.8 °F 9.5 °F 1025.3 in West 16.1 mph 19.3 mph 66 % 0.0 in
11:37 15.8 °F 9.5 °F 1025.3 in WNW 8.0 mph 20.9 mph 66 % 0.0 in
11:42 15.8 °F 9.5 °F 1025.3 in WNW 8.0 mph 20.9 mph 66 % 0.0 in
11:52 16.0 °F 9.2 °F 1025.3 in WNW 6.4 mph 17.7 mph 64 % 0.0 in
11:57 16.1 °F 9.1 °F 1025.3 in NW 8.0 mph 17.7 mph 63 % 0.0 in
12:02 16.4 °F 9.8 °F 1024.9 in NW 4.8 mph 17.7 mph 65 % 0.0 in
12:07 16.3 °F 9.5 °F 1024.9 in West 4.8 mph 12.9 mph 64 % 0.0 in
12:12 16.2 °F 9.4 °F 1024.9 in West 11.3 mph 25.7 mph 64 % 0.0 in
12:17 16.2 °F 9.4 °F 1024.9 in WSW 1.6 mph 25.7 mph 64 % 0.0 in
12:22 16.6 °F 9.8 °F 1024.9 in West 6.4 mph 25.7 mph 64 % 0.0 in
12:32 16.8 °F 9.7 °F 1024.9 in North 6.4 mph 16.1 mph 63 % 0.0 in
12:42 17.1 °F 10.0 °F 1024.9 in WNW 4.8 mph 14.5 mph 63 % 0.0 in
12:47 17.1 °F 9.5 °F 1024.9 in WNW 12.9 mph 16.1 mph 61 % 0.0 in
12:52 17.0 °F 9.9 °F 1024.9 in SW 3.2 mph 16.1 mph 63 % 0.0 in
12:57 16.8 °F 10.0 °F 1024.9 in West 8.0 mph 17.7 mph 64 % 0.0 in
13:02 16.8 °F 10.0 °F 1024.9 in West 6.4 mph 17.7 mph 64 % 0.0 in
13:07 17.2 °F 10.1 °F 1024.9 in West 6.4 mph 17.7 mph 63 % 0.0 in
13:12 17.5 °F 9.6 °F 1024.9 in WNW 9.7 mph 16.1 mph 60 % 0.0 in
13:17 17.6 °F 9.5 °F 1024.9 in WNW 17.7 mph 17.7 mph 59 % 0.0 in
13:22 17.4 °F 9.3 °F 1024.9 in West 8.0 mph 19.3 mph 59 % 0.0 in
13:32 17.4 °F 9.6 °F 1024.9 in NW 4.8 mph 19.3 mph 60 % 0.0 in
13:37 17.5 °F 9.4 °F 1024.9 in WNW 11.3 mph 17.7 mph 59 % 0.0 in
13:42 17.6 °F 9.7 °F 1024.6 in WSW 3.2 mph 17.7 mph 60 % 0.0 in
13:47 17.9 °F 9.3 °F 1024.6 in West 17.7 mph 20.9 mph 57 % 0.0 in
13:52 17.9 °F 9.3 °F 1024.6 in WSW 6.4 mph 20.9 mph 57 % 0.0 in
13:57 18.0 °F 9.1 °F 1024.6 in WNW 9.7 mph 20.9 mph 56 % 0.0 in
14:02 17.9 °F 9.0 °F 1024.6 in West 6.4 mph 20.9 mph 56 % 0.0 in
14:07 18.1 °F 9.7 °F 1024.6 in WSW 6.4 mph 20.9 mph 58 % 0.0 in
14:12 18.3 °F 9.4 °F 1024.6 in West 12.9 mph 24.1 mph 56 % 0.0 in
14:17 18.6 °F 9.4 °F 1024.6 in West 6.4 mph 24.1 mph 55 % 0.0 in
14:22 18.6 °F 9.6 °F 1024.3 in WNW 1.6 mph 24.1 mph 56 % 0.0 in
14:27 18.4 °F 8.9 °F 1024.3 in NNE 4.8 mph 20.9 mph 54 % 0.0 in
14:32 18.5 °F 9.3 °F 1024.3 in West 11.3 mph 14.5 mph 55 % 0.0 in
14:37 18.7 °F 9.5 °F 1024.3 in NW 8.0 mph 14.5 mph 55 % 0.0 in
14:42 18.8 °F 9.3 °F 1024.3 in WNW 4.8 mph 14.5 mph 54 % 0.0 in
14:47 18.9 °F 9.7 °F 1024.3 in North 4.8 mph 14.5 mph 55 % 0.0 in
14:52 19.0 °F 9.8 °F 1024.3 in NNW 8.0 mph 14.5 mph 55 % 0.0 in
14:57 18.9 °F 9.7 °F 1024.3 in NW 4.8 mph 17.7 mph 55 % 0.0 in
15:02 18.9 °F 9.4 °F 1024.3 in WNW 4.8 mph 17.7 mph 54 % 0.0 in
15:07 18.8 °F 9.6 °F 1024.3 in WNW 11.3 mph 16.1 mph 55 % 0.0 in
15:12 18.9 °F 9.7 °F 1024.3 in NW 8.0 mph 17.7 mph 55 % 0.0 in
15:17 18.8 °F 9.3 °F 1024.3 in West 4.8 mph 17.7 mph 54 % 0.0 in
15:22 18.9 °F 9.7 °F 1024.3 in WNW 6.4 mph 17.7 mph 55 % 0.0 in
15:27 19.0 °F 9.5 °F 1023.9 in WNW 8.0 mph 17.7 mph 54 % 0.0 in
15:32 19.1 °F 9.6 °F 1023.9 in NNW 1.6 mph 14.5 mph 54 % 0.0 in
15:37 19.1 °F 9.6 °F 1023.9 in WNW 8.0 mph 14.5 mph 54 % 0.0 in
15:42 19.1 °F 9.3 °F 1023.9 in WNW 4.8 mph 14.5 mph 53 % 0.0 in
15:47 19.2 °F 9.9 °F 1023.9 in NNW 6.4 mph 14.5 mph 55 % 0.0 in
15:57 19.7 °F 9.3 °F 1023.6 in WNW 11.3 mph 14.5 mph 51 % 0.0 in
16:02 20.2 °F 9.4 °F 1023.6 in WNW 8.0 mph 17.7 mph 50 % 0.0 in
16:07 20.1 °F 8.7 °F 1023.6 in West 8.0 mph 20.9 mph 48 % 0.0 in
16:12 20.1 °F 8.7 °F 1023.6 in West 14.5 mph 27.4 mph 48 % 0.0 in
16:17 19.8 °F 8.8 °F 1023.6 in West 19.3 mph 27.4 mph 49 % 0.0 in
16:22 20.4 °F 9.0 °F 1023.6 in West 12.9 mph 24.1 mph 48 % 0.0 in
16:27 20.4 °F 9.0 °F 1023.6 in South 4.8 mph 29.0 mph 48 % 0.0 in
16:32 20.2 °F 8.8 °F 1023.6 in West 9.7 mph 29.0 mph 48 % 0.0 in
16:37 20.0 °F 9.0 °F 1023.6 in SW 8.0 mph 29.0 mph 49 % 0.0 in
16:42 19.9 °F 9.2 °F 1023.6 in WNW 20.9 mph 24.1 mph 50 % 0.0 in
16:47 19.8 °F 9.1 °F 1023.6 in WSW 8.0 mph 22.5 mph 50 % 0.0 in
16:52 19.6 °F 8.9 °F 1023.6 in WNW 8.0 mph 20.9 mph 50 % 0.0 in
16:57 19.6 °F 8.9 °F 1023.2 in WNW 14.5 mph 20.9 mph 50 % 0.0 in
17:02 19.6 °F 9.2 °F 1023.2 in West 6.4 mph 17.7 mph 51 % 0.0 in
17:07 19.5 °F 8.8 °F 1023.2 in WNW 8.0 mph 17.7 mph 50 % 0.0 in
17:12 19.5 °F 9.1 °F 1023.2 in WNW 6.4 mph 17.7 mph 51 % 0.0 in
17:17 19.6 °F 8.9 °F 1023.2 in NW 6.4 mph 17.7 mph 50 % 0.0 in
17:22 19.7 °F 9.0 °F 1023.2 in WNW 12.9 mph 17.7 mph 50 % 0.0 in
17:27 19.5 °F 9.1 °F 1023.2 in SSW 6.4 mph 19.3 mph 51 % 0.0 in
17:32 19.4 °F 8.7 °F 1023.2 in West 16.1 mph 20.9 mph 50 % 0.0 in
17:37 19.3 °F 8.9 °F 1023.2 in WNW 8.0 mph 20.9 mph 51 % 0.0 in
17:42 19.3 °F 8.9 °F 1023.2 in West 4.8 mph 20.9 mph 51 % 0.0 in
17:47 19.3 °F 8.9 °F 1023.2 in West 6.4 mph 20.9 mph 51 % 0.0 in
17:52 19.3 °F 9.2 °F 1023.2 in WNW 6.4 mph 17.7 mph 52 % 0.0 in
17:57 19.3 °F 9.2 °F 1023.2 in West 8.0 mph 17.7 mph 52 % 0.0 in
18:02 19.2 °F 9.4 °F 1023.2 in NW 11.3 mph 17.7 mph 53 % 0.0 in
18:07 19.2 °F 9.4 °F 1023.2 in North 8.0 mph 19.3 mph 53 % 0.0 in
18:12 19.1 °F 9.3 °F 1023.2 in WNW 4.8 mph 19.3 mph 53 % 0.0 in
18:17 19.0 °F 9.2 °F 1023.2 in WNW 12.9 mph 19.3 mph 53 % 0.0 in
18:22 18.9 °F 9.4 °F 1023.2 in West 4.8 mph 19.3 mph 54 % 0.0 in
18:32 19.0 °F 9.5 °F 1023.2 in NNW 4.8 mph 16.1 mph 54 % 0.0 in
18:42 18.9 °F 9.1 °F 1023.2 in West 12.9 mph 16.1 mph 53 % 0.0 in
18:47 18.9 °F 9.1 °F 1023.2 in WNW 11.3 mph 17.7 mph 53 % 0.0 in
18:52 18.8 °F 9.0 °F 1023.2 in West 3.2 mph 19.3 mph 53 % 0.0 in
18:57 18.8 °F 9.3 °F 1023.2 in NW 4.8 mph 19.3 mph 54 % 0.0 in
19:02 18.8 °F 9.0 °F 1023.2 in NNW 4.8 mph 19.3 mph 53 % 0.0 in
19:07 18.7 °F 8.9 °F 1023.2 in WNW 9.7 mph 14.5 mph 53 % 0.0 in
19:12 18.7 °F 9.2 °F 1023.2 in NW 3.2 mph 14.5 mph 54 % 0.0 in
19:17 18.7 °F 9.2 °F 1023.2 in WNW 4.8 mph 12.9 mph 54 % 0.0 in
19:22 18.6 °F 9.1 °F 1023.2 in WNW 4.8 mph 12.9 mph 54 % 0.0 in
19:27 18.6 °F 9.1 °F 1023.2 in WNW 4.8 mph 11.3 mph 54 % 0.0 in
19:32 18.6 °F 9.1 °F 1023.2 in WNW 8.0 mph 11.3 mph 54 % 0.0 in
19:37 18.6 °F 9.1 °F 1023.2 in NNW 4.8 mph 12.9 mph 54 % 0.0 in
19:42 18.5 °F 9.3 °F 1023.2 in WNW 8.0 mph 12.9 mph 55 % 0.0 in
19:47 18.4 °F 9.2 °F 1023.2 in WNW 8.0 mph 12.9 mph 55 % 0.0 in
19:52 18.4 °F 9.2 °F 1023.2 in WNW 4.8 mph 12.9 mph 55 % 0.0 in
19:57 18.3 °F 9.4 °F 1023.2 in West 3.2 mph 12.9 mph 56 % 0.0 in
20:02 18.3 °F 9.1 °F 1023.2 in NW 6.4 mph 9.7 mph 55 % 0.0 in
20:12 18.2 °F 9.3 °F 1023.2 in WNW 3.2 mph 11.3 mph 56 % 0.0 in
20:17 18.1 °F 9.4 °F 1023.2 in West 1.6 mph 9.7 mph 57 % 0.0 in
20:22 18.1 °F 9.4 °F 1023.6 in West 1.6 mph 8.0 mph 57 % 0.0 in
20:27 18.0 °F 9.4 °F 1023.6 in West 1.6 mph 6.4 mph 57 % 0.0 in
20:32 17.9 °F 9.3 °F 1023.6 in Calm   4.8 mph 57 % 0.0 in
20:37 17.9 °F 9.5 °F 1023.6 in WNW 3.2 mph 3.2 mph 58 % 0.0 in
20:42 17.9 °F 9.5 °F 1023.6 in West 4.8 mph 4.8 mph 58 % 0.0 in
20:47 17.8 °F 9.4 °F 1023.6 in Calm   6.4 mph 58 % 0.0 in
20:52 17.7 °F 9.6 °F 1023.6 in West 1.6 mph 6.4 mph 59 % 0.0 in
20:57 17.7 °F 9.6 °F 1023.6 in WNW 1.6 mph 6.4 mph 59 % 0.0 in
21:02 17.7 °F 9.6 °F 1023.6 in West 1.6 mph 4.8 mph 59 % 0.0 in
21:07 17.7 °F 9.6 °F 1023.9 in WNW 1.6 mph 4.8 mph 59 % 0.0 in
21:12 17.6 °F 9.5 °F 1023.9 in Calm   4.8 mph 59 % 0.0 in
21:17 17.6 °F 9.7 °F 1023.9 in West 1.6 mph 4.8 mph 60 % 0.0 in
21:22 17.5 °F 9.6 °F 1023.9 in WNW 3.2 mph 3.2 mph 60 % 0.0 in
21:27 17.5 °F 9.6 °F 1023.9 in Calm   3.2 mph 60 % 0.0 in
21:32 17.4 °F 9.8 °F 1023.9 in NW 3.2 mph 3.2 mph 61 % 0.0 in
21:37 17.4 °F 9.8 °F 1024.3 in Calm   3.2 mph 61 % 0.0 in
21:42 17.3 °F 9.7 °F 1024.3 in WNW 1.6 mph 3.2 mph 61 % 0.0 in
21:47 17.2 °F 9.9 °F 1023.9 in WNW 3.2 mph 4.8 mph 62 % 0.0 in
21:52 17.2 °F 9.9 °F 1023.9 in WNW 1.6 mph 4.8 mph 62 % 0.0 in
21:57 17.1 °F 9.8 °F 1023.9 in Calm   4.8 mph 62 % 0.0 in
22:02 17.1 °F 10.0 °F 1023.9 in WNW 1.6 mph 4.8 mph 63 % 0.0 in
22:07 17.1 °F 10.0 °F 1023.9 in WNW 1.6 mph 4.8 mph 63 % 0.0 in
22:12 17.1 °F 10.0 °F 1023.9 in NW 3.2 mph 4.8 mph 63 % 0.0 in
22:17 17.0 °F 9.9 °F 1023.9 in Calm   4.8 mph 63 % 0.0 in
22:22 17.0 °F 10.1 °F 1023.9 in WNW 6.4 mph 8.0 mph 64 % 0.0 in
22:27 16.9 °F 10.0 °F 1023.9 in West 1.6 mph 8.0 mph 64 % 0.0 in
22:32 16.9 °F 10.0 °F 1023.9 in West 3.2 mph 9.7 mph 64 % 0.0 in
22:37 16.9 °F 10.0 °F 1023.6 in West 3.2 mph 9.7 mph 64 % 0.0 in
22:42 16.8 °F 10.2 °F 1023.6 in WNW 3.2 mph 9.7 mph 65 % 0.0 in
22:52 16.8 °F 10.2 °F 1023.6 in WNW 1.6 mph 8.0 mph 65 % 0.0 in
22:57 16.8 °F 10.2 °F 1023.6 in West 4.8 mph 8.0 mph 65 % 0.0 in
23:02 16.8 °F 10.2 °F 1023.6 in West 4.8 mph 8.0 mph 65 % 0.0 in
23:07 16.8 °F 10.2 °F 1023.6 in WNW 3.2 mph 8.0 mph 65 % 0.0 in
23:12 16.8 °F 10.2 °F 1023.6 in West 4.8 mph 8.0 mph 65 % 0.0 in
23:17 16.7 °F 10.1 °F 1023.6 in West 3.2 mph 9.7 mph 65 % 0.0 in
23:22 16.7 °F 10.3 °F 1023.6 in West 6.4 mph 9.7 mph 66 % 0.0 in
23:27 16.7 °F 10.3 °F 1023.6 in West 3.2 mph 9.7 mph 66 % 0.0 in
23:32 16.6 °F 10.2 °F 1023.6 in WNW 3.2 mph 9.7 mph 66 % 0.0 in
23:37 16.6 °F 10.2 °F 1023.6 in West 6.4 mph 9.7 mph 66 % 0.0 in
23:42 16.6 °F 10.2 °F 1023.6 in West 3.2 mph 12.9 mph 66 % 0.0 in
23:47 16.6 °F 10.2 °F 1023.6 in WNW 3.2 mph 12.9 mph 66 % 0.0 in
23:52 16.6 °F 10.2 °F 1023.2 in WNW 6.4 mph 12.9 mph 66 % 0.0 in
23:57 16.6 °F 10.2 °F 1023.2 in WSW 3.2 mph 11.3 mph 66 % 0.0 in
Meteo18
Compliments of Weather Underground - 4 mb

Script developed by  Jim McMurry - jmcmurry@mwt.net Adapted for the template by  Wim van der Kuil - Leuven-Template.eu

You find our weather info also at:

European Weather Network

Weather Underground

Equipment we use:

Weather-station
Davis Vue

Weather-program
Meteobridge

Weather-server
Raspberry PI 2 B+

Provider
1 and 1

Davis Vue

Meteobridge

Raspberry PI 2 B+

1 and 1